CheckWX is a tool to help pilots better visualize weather data.  It is not intended as a substitute for an official pre-flight weather briefing.

12:42:46 UTC

NWWU TAF
Touho Airport
Touho, New Caledonia
TAF NWWU 211700Z 2118/2218 13010KT 9999 BKN020 BKN040 PROB40 TEMPO 2118/2121 4000 SHRA BKN012 SCT018TCU

Mar-21@
18:00 UTC

Mar-21 @ 18:00 UTC

Mar-22@
18:00 UTC

Mar-22 @ 18:00 UTC

TAF NWWU 211700Z 2118/2218 13010KT 9999 BKN020 BKN040
Wind
  • 130° at 10 KTS
Cloud Levels
  • Broken at 2,000' AGL
  • Broken at 4,000' AGL

Mar-21@
18:00 UTC

Mar-21 @ 18:00 UTC

Mar-21@
21:00 UTC

Mar-21 @ 21:00 UTC

PROB40 TEMPO 2118/2121 4000 SHRA BKN012 SCT018TCU

Expired

Conditions
Rain
Cloud Levels
  • Broken at 1,200' AGL
  • Scattered at 1,800' AGL